sensor_id;sensor_type;location;lat;lon;timestamp;P1;durP1;ratioP1;P2;durP2;ratioP2
17510;SDS011;8873;48.818;9.422;2022-07-24T00:00:06;18.25;;;11.55;;
17510;SDS011;8873;48.818;9.422;2022-07-24T00:02:36;15.07;;;10.68;;
17510;SDS011;8873;48.818;9.422;2022-07-24T00:05:04;18.23;;;10.65;;
17510;SDS011;8873;48.818;9.422;2022-07-24T00:07:31;14.38;;;11.10;;
17510;SDS011;8873;48.818;9.422;2022-07-24T00:10:00;13.80;;;10.75;;
17510;SDS011;8873;48.818;9.422;2022-07-24T00:12:28;16.17;;;11.00;;
17510;SDS011;8873;48.818;9.422;2022-07-24T00:14:56;15.38;;;11.50;;
17510;SDS011;8873;48.818;9.422;2022-07-24T00:17:23;17.02;;;11.40;;
17510;SDS011;8873;48.818;9.422;2022-07-24T00:19:52;20.08;;;12.07;;
17510;SDS011;8873;48.818;9.422;2022-07-24T00:22:20;18.77;;;11.32;;
17510;SDS011;8873;48.818;9.422;2022-07-24T00:24:47;17.20;;;11.45;;
17510;SDS011;8873;48.818;9.422;2022-07-24T00:27:15;16.15;;;11.82;;
17510;SDS011;8873;48.818;9.422;2022-07-24T00:29:43;18.52;;;11.95;;
17510;SDS011;8873;48.818;9.422;2022-07-24T00:32:10;17.75;;;11.38;;
17510;SDS011;8873;48.818;9.422;2022-07-24T00:34:38;17.65;;;12.27;;
17510;SDS011;8873;48.818;9.422;2022-07-24T00:37:07;16.38;;;10.73;;
17510;SDS011;8873;48.818;9.422;2022-07-24T00:39:35;16.42;;;11.05;;
17510;SDS011;8873;48.818;9.422;2022-07-24T00:42:02;16.15;;;11.05;;
17510;SDS011;8873;48.818;9.422;2022-07-24T00:44:30;18.35;;;11.15;;
17510;SDS011;8873;48.818;9.422;2022-07-24T00:46:58;18.55;;;11.07;;
17510;SDS011;8873;48.818;9.422;2022-07-24T00:49:25;15.93;;;11.30;;
17510;SDS011;8873;48.818;9.422;2022-07-24T00:51:53;19.20;;;11.98;;
17510;SDS011;8873;48.818;9.422;2022-07-24T00:54:23;16.17;;;11.48;;
17510;SDS011;8873;48.818;9.422;2022-07-24T00:56:52;15.88;;;11.73;;
17510;SDS011;8873;48.818;9.422;2022-07-24T00:59:20;17.00;;;11.98;;
17510;SDS011;8873;48.818;9.422;2022-07-24T01:01:48;16.55;;;11.98;;
17510;SDS011;8873;48.818;9.422;2022-07-24T01:04:16;18.55;;;11.40;;
17510;SDS011;8873;48.818;9.422;2022-07-24T01:06:44;18.50;;;11.38;;
17510;SDS011;8873;48.818;9.422;2022-07-24T01:09:12;17.50;;;11.75;;
17510;SDS011;8873;48.818;9.422;2022-07-24T01:11:41;15.93;;;12.18;;
17510;SDS011;8873;48.818;9.422;2022-07-24T01:14:12;15.70;;;11.95;;
17510;SDS011;8873;48.818;9.422;2022-07-24T01:16:40;17.08;;;11.98;;
17510;SDS011;8873;48.818;9.422;2022-07-24T01:19:08;17.25;;;11.93;;
17510;SDS011;8873;48.818;9.422;2022-07-24T01:21:37;17.63;;;11.80;;
17510;SDS011;8873;48.818;9.422;2022-07-24T01:24:05;17.30;;;12.23;;
17510;SDS011;8873;48.818;9.422;2022-07-24T01:26:33;17.02;;;12.35;;
17510;SDS011;8873;48.818;9.422;2022-07-24T01:29:00;18.38;;;12.82;;
17510;SDS011;8873;48.818;9.422;2022-07-24T01:31:28;17.88;;;12.60;;
17510;SDS011;8873;48.818;9.422;2022-07-24T01:33:56;18.58;;;12.25;;
17510;SDS011;8873;48.818;9.422;2022-07-24T01:36:23;21.23;;;12.85;;
17510;SDS011;8873;48.818;9.422;2022-07-24T01:38:52;20.50;;;13.13;;
17510;SDS011;8873;48.818;9.422;2022-07-24T01:41:20;21.02;;;12.73;;
17510;SDS011;8873;48.818;9.422;2022-07-24T01:43:47;18.42;;;12.45;;
17510;SDS011;8873;48.818;9.422;2022-07-24T01:46:15;14.65;;;11.82;;
17510;SDS011;8873;48.818;9.422;2022-07-24T01:48:43;15.82;;;11.77;;
17510;SDS011;8873;48.818;9.422;2022-07-24T01:51:11;16.27;;;11.65;;
17510;SDS011;8873;48.818;9.422;2022-07-24T01:53:39;19.33;;;11.70;;
17510;SDS011;8873;48.818;9.422;2022-07-24T01:56:08;17.65;;;13.05;;
17510;SDS011;8873;48.818;9.422;2022-07-24T01:58:36;19.60;;;12.27;;
17510;SDS011;8873;48.818;9.422;2022-07-24T02:01:05;20.63;;;13.75;;
17510;SDS011;8873;48.818;9.422;2022-07-24T02:03:33;18.67;;;12.82;;
17510;SDS011;8873;48.818;9.422;2022-07-24T02:06:01;20.58;;;12.88;;
17510;SDS011;8873;48.818;9.422;2022-07-24T02:08:28;20.08;;;13.80;;
17510;SDS011;8873;48.818;9.422;2022-07-24T02:10:56;20.45;;;14.20;;
17510;SDS011;8873;48.818;9.422;2022-07-24T02:13:25;19.05;;;13.18;;
17510;SDS011;8873;48.818;9.422;2022-07-24T02:15:55;21.30;;;13.30;;
17510;SDS011;8873;48.818;9.422;2022-07-24T02:18:22;21.08;;;13.50;;
17510;SDS011;8873;48.818;9.422;2022-07-24T02:20:50;18.92;;;12.75;;
17510;SDS011;8873;48.818;9.422;2022-07-24T02:23:18;18.80;;;12.75;;
17510;SDS011;8873;48.818;9.422;2022-07-24T02:25:46;21.02;;;13.18;;
17510;SDS011;8873;48.818;9.422;2022-07-24T02:28:14;18.48;;;12.43;;
17510;SDS011;8873;48.818;9.422;2022-07-24T02:30:43;20.23;;;13.25;;
17510;SDS011;8873;48.818;9.422;2022-07-24T02:33:11;20.98;;;13.55;;
17510;SDS011;8873;48.818;9.422;2022-07-24T02:35:39;17.80;;;12.95;;
17510;SDS011;8873;48.818;9.422;2022-07-24T02:38:07;18.85;;;13.20;;
17510;SDS011;8873;48.818;9.422;2022-07-24T02:40:35;19.45;;;13.10;;
17510;SDS011;8873;48.818;9.422;2022-07-24T02:43:02;16.35;;;12.55;;
17510;SDS011;8873;48.818;9.422;2022-07-24T02:45:31;19.30;;;13.38;;
17510;SDS011;8873;48.818;9.422;2022-07-24T02:48:01;22.80;;;13.73;;
17510;SDS011;8873;48.818;9.422;2022-07-24T02:50:29;18.90;;;13.20;;
17510;SDS011;8873;48.818;9.422;2022-07-24T02:52:57;20.83;;;13.45;;
17510;SDS011;8873;48.818;9.422;2022-07-24T02:55:25;17.00;;;12.88;;
17510;SDS011;8873;48.818;9.422;2022-07-24T02:57:54;23.13;;;12.63;;
17510;SDS011;8873;48.818;9.422;2022-07-24T03:00:23;21.70;;;13.40;;
17510;SDS011;8873;48.818;9.422;2022-07-24T03:02:50;17.27;;;12.93;;
17510;SDS011;8873;48.818;9.422;2022-07-24T03:05:19;21.30;;;13.93;;
17510;SDS011;8873;48.818;9.422;2022-07-24T03:07:47;20.17;;;14.20;;
17510;SDS011;8873;48.818;9.422;2022-07-24T03:10:15;19.45;;;13.65;;
17510;SDS011;8873;48.818;9.422;2022-07-24T03:12:43;21.13;;;13.48;;
17510;SDS011;8873;48.818;9.422;2022-07-24T03:15:11;19.00;;;13.35;;
17510;SDS011;8873;48.818;9.422;2022-07-24T03:17:39;19.40;;;13.48;;
17510;SDS011;8873;48.818;9.422;2022-07-24T03:20:08;20.77;;;13.38;;
17510;SDS011;8873;48.818;9.422;2022-07-24T03:22:37;19.38;;;13.20;;
17510;SDS011;8873;48.818;9.422;2022-07-24T03:25:05;18.65;;;13.25;;
17510;SDS011;8873;48.818;9.422;2022-07-24T03:27:33;19.25;;;13.60;;
17510;SDS011;8873;48.818;9.422;2022-07-24T03:30:00;20.90;;;14.43;;
17510;SDS011;8873;48.818;9.422;2022-07-24T03:32:28;18.58;;;13.05;;
17510;SDS011;8873;48.818;9.422;2022-07-24T03:34:55;23.15;;;14.13;;
17510;SDS011;8873;48.818;9.422;2022-07-24T03:37:23;22.40;;;13.77;;
17510;SDS011;8873;48.818;9.422;2022-07-24T03:39:52;30.15;;;14.15;;
17510;SDS011;8873;48.818;9.422;2022-07-24T03:42:19;21.08;;;14.07;;
17510;SDS011;8873;48.818;9.422;2022-07-24T03:44:47;20.38;;;13.32;;
17510;SDS011;8873;48.818;9.422;2022-07-24T03:47:15;21.15;;;13.98;;
17510;SDS011;8873;48.818;9.422;2022-07-24T03:49:42;21.92;;;13.88;;
17510;SDS011;8873;48.818;9.422;2022-07-24T03:52:10;21.90;;;14.05;;
17510;SDS011;8873;48.818;9.422;2022-07-24T03:54:39;21.55;;;13.65;;
17510;SDS011;8873;48.818;9.422;2022-07-24T03:57:08;21.52;;;13.07;;
17510;SDS011;8873;48.818;9.422;2022-07-24T03:59:36;19.38;;;13.90;;
17510;SDS011;8873;48.818;9.422;2022-07-24T04:02:03;24.13;;;13.85;;
17510;SDS011;8873;48.818;9.422;2022-07-24T04:04:31;23.00;;;13.90;;
17510;SDS011;8873;48.818;9.422;2022-07-24T04:06:58;19.40;;;14.15;;
17510;SDS011;8873;48.818;9.422;2022-07-24T04:09:26;23.40;;;14.38;;
17510;SDS011;8873;48.818;9.422;2022-07-24T04:11:57;20.55;;;13.68;;
17510;SDS011;8873;48.818;9.422;2022-07-24T04:14:26;22.92;;;14.55;;
17510;SDS011;8873;48.818;9.422;2022-07-24T04:16:53;20.65;;;13.75;;
17510;SDS011;8873;48.818;9.422;2022-07-24T04:19:21;20.80;;;13.73;;
17510;SDS011;8873;48.818;9.422;2022-07-24T04:21:49;18.98;;;13.38;;
17510;SDS011;8873;48.818;9.422;2022-07-24T04:24:16;24.02;;;15.02;;
17510;SDS011;8873;48.818;9.422;2022-07-24T04:26:44;21.08;;;13.82;;
17510;SDS011;8873;48.818;9.422;2022-07-24T04:29:11;21.85;;;13.90;;
17510;SDS011;8873;48.818;9.422;2022-07-24T04:31:47;22.35;;;14.75;;
17510;SDS011;8873;48.818;9.422;2022-07-24T04:34:14;20.02;;;14.40;;
17510;SDS011;8873;48.818;9.422;2022-07-24T04:36:42;22.35;;;15.00;;
17510;SDS011;8873;48.818;9.422;2022-07-24T04:39:10;24.77;;;14.38;;
17510;SDS011;8873;48.818;9.422;2022-07-24T04:41:38;22.25;;;14.27;;
17510;SDS011;8873;48.818;9.422;2022-07-24T04:44:12;23.75;;;14.25;;
17510;SDS011;8873;48.818;9.422;2022-07-24T04:46:40;20.25;;;13.57;;
17510;SDS011;8873;48.818;9.422;2022-07-24T04:49:09;19.73;;;13.80;;
17510;SDS011;8873;48.818;9.422;2022-07-24T04:51:37;20.27;;;13.50;;
17510;SDS011;8873;48.818;9.422;2022-07-24T04:54:05;22.38;;;13.73;;
17510;SDS011;8873;48.818;9.422;2022-07-24T04:56:35;21.48;;;15.15;;
17510;SDS011;8873;48.818;9.422;2022-07-24T04:59:03;18.17;;;13.15;;
17510;SDS011;8873;48.818;9.422;2022-07-24T05:01:31;20.42;;;13.82;;
17510;SDS011;8873;48.818;9.422;2022-07-24T05:03:59;20.52;;;13.77;;
17510;SDS011;8873;48.818;9.422;2022-07-24T05:06:31;20.95;;;13.98;;
17510;SDS011;8873;48.818;9.422;2022-07-24T05:08:58;19.95;;;13.70;;
17510;SDS011;8873;48.818;9.422;2022-07-24T05:11:27;25.83;;;14.85;;
17510;SDS011;8873;48.818;9.422;2022-07-24T05:13:57;19.85;;;13.15;;
17510;SDS011;8873;48.818;9.422;2022-07-24T05:16:25;18.77;;;13.27;;
17510;SDS011;8873;48.818;9.422;2022-07-24T05:18:53;19.85;;;13.23;;
17510;SDS011;8873;48.818;9.422;2022-07-24T05:21:20;20.48;;;13.75;;
17510;SDS011;8873;48.818;9.422;2022-07-24T05:23:52;19.33;;;13.43;;
17510;SDS011;8873;48.818;9.422;2022-07-24T05:26:20;22.25;;;13.75;;
17510;SDS011;8873;48.818;9.422;2022-07-24T05:28:49;18.77;;;13.20;;
17510;SDS011;8873;48.818;9.422;2022-07-24T05:31:17;20.58;;;14.23;;
17510;SDS011;8873;48.818;9.422;2022-07-24T05:33:44;22.08;;;13.48;;
17510;SDS011;8873;48.818;9.422;2022-07-24T05:36:12;23.02;;;13.95;;
17510;SDS011;8873;48.818;9.422;2022-07-24T05:38:39;25.38;;;13.50;;
17510;SDS011;8873;48.818;9.422;2022-07-24T05:41:09;20.15;;;13.82;;
17510;SDS011;8873;48.818;9.422;2022-07-24T05:43:36;22.52;;;13.15;;
17510;SDS011;8873;48.818;9.422;2022-07-24T05:46:04;19.55;;;13.48;;
17510;SDS011;8873;48.818;9.422;2022-07-24T05:48:32;18.45;;;12.73;;
17510;SDS011;8873;48.818;9.422;2022-07-24T05:51:00;19.58;;;13.35;;
17510;SDS011;8873;48.818;9.422;2022-07-24T05:53:27;19.80;;;12.55;;
17510;SDS011;8873;48.818;9.422;2022-07-24T05:55:55;18.17;;;12.80;;
17510;SDS011;8873;48.818;9.422;2022-07-24T05:58:24;20.33;;;12.60;;
17510;SDS011;8873;48.818;9.422;2022-07-24T06:00:51;17.10;;;12.63;;
17510;SDS011;8873;48.818;9.422;2022-07-24T06:03:19;16.17;;;12.50;;
17510;SDS011;8873;48.818;9.422;2022-07-24T06:05:47;18.08;;;13.25;;
17510;SDS011;8873;48.818;9.422;2022-07-24T06:08:14;20.23;;;13.00;;
17510;SDS011;8873;48.818;9.422;2022-07-24T06:10:42;16.15;;;11.30;;
17510;SDS011;8873;48.818;9.422;2022-07-24T06:13:10;19.10;;;13.30;;
17510;SDS011;8873;48.818;9.422;2022-07-24T06:15:39;17.67;;;12.52;;
17510;SDS011;8873;48.818;9.422;2022-07-24T06:18:06;20.08;;;12.43;;
17510;SDS011;8873;48.818;9.422;2022-07-24T06:20:34;15.90;;;12.10;;
17510;SDS011;8873;48.818;9.422;2022-07-24T06:23:02;17.10;;;12.18;;
17510;SDS011;8873;48.818;9.422;2022-07-24T06:25:29;16.77;;;11.93;;
17510;SDS011;8873;48.818;9.422;2022-07-24T06:27:57;19.45;;;12.95;;
17510;SDS011;8873;48.818;9.422;2022-07-24T06:30:25;16.33;;;12.15;;
17510;SDS011;8873;48.818;9.422;2022-07-24T06:32:55;18.60;;;12.65;;
17510;SDS011;8873;48.818;9.422;2022-07-24T06:35:23;13.80;;;11.60;;
17510;SDS011;8873;48.818;9.422;2022-07-24T06:37:51;15.02;;;12.15;;
17510;SDS011;8873;48.818;9.422;2022-07-24T06:40:19;16.98;;;11.90;;
17510;SDS011;8873;48.818;9.422;2022-07-24T06:42:47;15.90;;;11.77;;
17510;SDS011;8873;48.818;9.422;2022-07-24T06:45:15;15.73;;;10.95;;
17510;SDS011;8873;48.818;9.422;2022-07-24T06:47:42;15.02;;;11.43;;
17510;SDS011;8873;48.818;9.422;2022-07-24T06:50:12;17.08;;;11.32;;
17510;SDS011;8873;48.818;9.422;2022-07-24T06:52:40;12.73;;;10.15;;
17510;SDS011;8873;48.818;9.422;2022-07-24T06:55:08;16.67;;;10.73;;
17510;SDS011;8873;48.818;9.422;2022-07-24T06:57:36;15.43;;;10.80;;
17510;SDS011;8873;48.818;9.422;2022-07-24T07:00:05;16.90;;;11.70;;
17510;SDS011;8873;48.818;9.422;2022-07-24T07:02:33;15.70;;;11.15;;
17510;SDS011;8873;48.818;9.422;2022-07-24T07:05:01;13.77;;;10.25;;
17510;SDS011;8873;48.818;9.422;2022-07-24T07:07:31;16.50;;;11.00;;
17510;SDS011;8873;48.818;9.422;2022-07-24T07:10:06;13.38;;;10.52;;
17510;SDS011;8873;48.818;9.422;2022-07-24T07:12:34;15.75;;;10.93;;
17510;SDS011;8873;48.818;9.422;2022-07-24T07:15:09;12.82;;;10.82;;
17510;SDS011;8873;48.818;9.422;2022-07-24T07:17:40;15.45;;;10.48;;
17510;SDS011;8873;48.818;9.422;2022-07-24T07:20:10;13.48;;;10.40;;
17510;SDS011;8873;48.818;9.422;2022-07-24T07:22:40;16.63;;;10.05;;
17510;SDS011;8873;48.818;9.422;2022-07-24T07:25:08;13.75;;;10.88;;
17510;SDS011;8873;48.818;9.422;2022-07-24T07:27:41;17.08;;;10.13;;
17510;SDS011;8873;48.818;9.422;2022-07-24T07:30:09;16.08;;;10.10;;
17510;SDS011;8873;48.818;9.422;2022-07-24T07:32:38;13.13;;;9.90;;
17510;SDS011;8873;48.818;9.422;2022-07-24T07:35:06;11.88;;;10.38;;
17510;SDS011;8873;48.818;9.422;2022-07-24T07:37:48;13.80;;;10.25;;
17510;SDS011;8873;48.818;9.422;2022-07-24T07:40:16;15.30;;;9.95;;
17510;SDS011;8873;48.818;9.422;2022-07-24T07:42:43;14.52;;;9.10;;
17510;SDS011;8873;48.818;9.422;2022-07-24T07:45:11;11.52;;;9.13;;
17510;SDS011;8873;48.818;9.422;2022-07-24T07:47:38;12.68;;;8.65;;
17510;SDS011;8873;48.818;9.422;2022-07-24T07:50:06;11.20;;;8.13;;
17510;SDS011;8873;48.818;9.422;2022-07-24T07:52:34;12.45;;;8.85;;
17510;SDS011;8873;48.818;9.422;2022-07-24T07:55:03;10.95;;;9.13;;
17510;SDS011;8873;48.818;9.422;2022-07-24T07:57:31;12.85;;;8.52;;
17510;SDS011;8873;48.818;9.422;2022-07-24T08:00:18;11.07;;;8.55;;
17510;SDS011;8873;48.818;9.422;2022-07-24T08:02:46;10.48;;;7.90;;
17510;SDS011;8873;48.818;9.422;2022-07-24T08:05:14;10.85;;;8.45;;
17510;SDS011;8873;48.818;9.422;2022-07-24T08:07:41;12.40;;;8.55;;
17510;SDS011;8873;48.818;9.422;2022-07-24T08:10:10;12.07;;;8.13;;
17510;SDS011;8873;48.818;9.422;2022-07-24T08:12:39;10.90;;;8.15;;
17510;SDS011;8873;48.818;9.422;2022-07-24T08:15:07;10.63;;;8.18;;
17510;SDS011;8873;48.818;9.422;2022-07-24T08:17:35;10.30;;;8.00;;
17510;SDS011;8873;48.818;9.422;2022-07-24T08:20:03;11.20;;;8.50;;
17510;SDS011;8873;48.818;9.422;2022-07-24T08:22:31;11.18;;;7.95;;
17510;SDS011;8873;48.818;9.422;2022-07-24T08:24:58;9.77;;;7.85;;
17510;SDS011;8873;48.818;9.422;2022-07-24T08:27:27;9.90;;;8.02;;
17510;SDS011;8873;48.818;9.422;2022-07-24T08:29:55;8.48;;;7.43;;
17510;SDS011;8873;48.818;9.422;2022-07-24T08:32:22;10.57;;;7.97;;
17510;SDS011;8873;48.818;9.422;2022-07-24T08:34:50;10.80;;;8.50;;
17510;SDS011;8873;48.818;9.422;2022-07-24T08:37:18;10.80;;;7.95;;
17510;SDS011;8873;48.818;9.422;2022-07-24T08:39:46;9.13;;;7.57;;
17510;SDS011;8873;48.818;9.422;2022-07-24T08:42:14;8.63;;;7.20;;
17510;SDS011;8873;48.818;9.422;2022-07-24T08:44:43;11.43;;;7.15;;
17510;SDS011;8873;48.818;9.422;2022-07-24T08:47:10;9.00;;;7.20;;
17510;SDS011;8873;48.818;9.422;2022-07-24T08:49:38;8.48;;;6.85;;
17510;SDS011;8873;48.818;9.422;2022-07-24T08:52:06;11.60;;;6.78;;
17510;SDS011;8873;48.818;9.422;2022-07-24T08:54:40;10.05;;;7.22;;
17510;SDS011;8873;48.818;9.422;2022-07-24T08:57:08;8.57;;;6.82;;
17510;SDS011;8873;48.818;9.422;2022-07-24T08:59:36;9.50;;;7.72;;
17510;SDS011;8873;48.818;9.422;2022-07-24T09:02:05;9.82;;;7.78;;
17510;SDS011;8873;48.818;9.422;2022-07-24T09:04:39;10.27;;;7.95;;
17510;SDS011;8873;48.818;9.422;2022-07-24T09:07:11;11.18;;;7.45;;
17510;SDS011;8873;48.818;9.422;2022-07-24T09:09:43;8.77;;;7.65;;
17510;SDS011;8873;48.818;9.422;2022-07-24T09:12:13;9.18;;;6.80;;
17510;SDS011;8873;48.818;9.422;2022-07-24T09:15:12;7.50;;;6.80;;
17510;SDS011;8873;48.818;9.422;2022-07-24T09:17:51;7.85;;;6.82;;
17510;SDS011;8873;48.818;9.422;2022-07-24T09:20:20;10.25;;;7.40;;
17510;SDS011;8873;48.818;9.422;2022-07-24T09:22:48;9.85;;;6.70;;
17510;SDS011;8873;48.818;9.422;2022-07-24T09:25:17;8.30;;;7.00;;
17510;SDS011;8873;48.818;9.422;2022-07-24T09:27:46;9.73;;;7.10;;
17510;SDS011;8873;48.818;9.422;2022-07-24T09:30:28;9.95;;;6.70;;
17510;SDS011;8873;48.818;9.422;2022-07-24T09:32:58;8.73;;;6.97;;
17510;SDS011;8873;48.818;9.422;2022-07-24T09:35:29;7.38;;;6.65;;
17510;SDS011;8873;48.818;9.422;2022-07-24T09:37:58;9.05;;;6.70;;
17510;SDS011;8873;48.818;9.422;2022-07-24T09:40:32;7.93;;;7.13;;
17510;SDS011;8873;48.818;9.422;2022-07-24T09:43:16;8.45;;;7.25;;
17510;SDS011;8873;48.818;9.422;2022-07-24T09:45:51;10.10;;;6.80;;
17510;SDS011;8873;48.818;9.422;2022-07-24T09:48:24;8.90;;;6.93;;
17510;SDS011;8873;48.818;9.422;2022-07-24T09:50:52;7.35;;;6.70;;
17510;SDS011;8873;48.818;9.422;2022-07-24T09:53:21;9.23;;;6.88;;
17510;SDS011;8873;48.818;9.422;2022-07-24T09:56:02;8.05;;;6.90;;
17510;SDS011;8873;48.818;9.422;2022-07-24T09:58:31;7.82;;;7.10;;
17510;SDS011;8873;48.818;9.422;2022-07-24T10:00:59;8.00;;;7.25;;
17510;SDS011;8873;48.818;9.422;2022-07-24T10:03:34;9.07;;;6.68;;
17510;SDS011;8873;48.818;9.422;2022-07-24T10:06:05;8.45;;;7.03;;
17510;SDS011;8873;48.818;9.422;2022-07-24T10:08:35;9.43;;;7.63;;
17510;SDS011;8873;48.818;9.422;2022-07-24T10:11:02;11.00;;;7.35;;
17510;SDS011;8873;48.818;9.422;2022-07-24T10:13:31;8.75;;;7.47;;
17510;SDS011;8873;48.818;9.422;2022-07-24T10:16:13;7.80;;;7.10;;
17510;SDS011;8873;48.818;9.422;2022-07-24T10:34:06;8.45;;;6.95;;
17510;SDS011;8873;48.818;9.422;2022-07-24T10:36:35;8.43;;;6.68;;
17510;SDS011;8873;48.818;9.422;2022-07-24T10:39:08;10.68;;;7.25;;
17510;SDS011;8873;48.818;9.422;2022-07-24T10:42:04;9.35;;;6.75;;
17510;SDS011;8873;48.818;9.422;2022-07-24T10:44:38;7.90;;;6.90;;
17510;SDS011;8873;48.818;9.422;2022-07-24T10:47:27;7.60;;;6.80;;
17510;SDS011;8873;48.818;9.422;2022-07-24T10:50:16;7.88;;;6.88;;
17510;SDS011;8873;48.818;9.422;2022-07-24T10:52:48;8.27;;;6.53;;
17510;SDS011;8873;48.818;9.422;2022-07-24T10:55:23;7.35;;;6.65;;
17510;SDS011;8873;48.818;9.422;2022-07-24T10:58:01;7.28;;;6.60;;
17510;SDS011;8873;48.818;9.422;2022-07-24T11:00:30;7.70;;;6.90;;
17510;SDS011;8873;48.818;9.422;2022-07-24T11:03:05;10.88;;;6.13;;
17510;SDS011;8873;48.818;9.422;2022-07-24T11:05:35;7.45;;;6.50;;
17510;SDS011;8873;48.818;9.422;2022-07-24T11:08:12;7.47;;;6.68;;
17510;SDS011;8873;48.818;9.422;2022-07-24T11:10:45;8.63;;;7.00;;
17510;SDS011;8873;48.818;9.422;2022-07-24T11:16:17;7.80;;;6.28;;
17510;SDS011;8873;48.818;9.422;2022-07-24T11:21:37;7.32;;;6.57;;
17510;SDS011;8873;48.818;9.422;2022-07-24T11:24:15;7.03;;;6.32;;
17510;SDS011;8873;48.818;9.422;2022-07-24T11:26:47;8.35;;;7.00;;
17510;SDS011;8873;48.818;9.422;2022-07-24T11:29:21;7.65;;;6.53;;
17510;SDS011;8873;48.818;9.422;2022-07-24T11:32:18;6.70;;;6.10;;
17510;SDS011;8873;48.818;9.422;2022-07-24T11:34:46;7.95;;;6.15;;
17510;SDS011;8873;48.818;9.422;2022-07-24T11:37:21;7.00;;;6.40;;
17510;SDS011;8873;48.818;9.422;2022-07-24T11:43:04;7.03;;;6.35;;
17510;SDS011;8873;48.818;9.422;2022-07-24T11:45:59;6.80;;;6.10;;
17510;SDS011;8873;48.818;9.422;2022-07-24T11:48:53;8.55;;;6.10;;
17510;SDS011;8873;48.818;9.422;2022-07-24T11:51:59;6.90;;;6.30;;
17510;SDS011;8873;48.818;9.422;2022-07-24T12:01:01;6.40;;;5.80;;
17510;SDS011;8873;48.818;9.422;2022-07-24T12:03:56;6.47;;;5.88;;
17510;SDS011;8873;48.818;9.422;2022-07-24T12:06:24;7.15;;;6.40;;
17510;SDS011;8873;48.818;9.422;2022-07-24T12:08:57;6.85;;;5.97;;
17510;SDS011;8873;48.818;9.422;2022-07-24T12:11:25;6.50;;;5.93;;
17510;SDS011;8873;48.818;9.422;2022-07-24T12:13:52;6.85;;;6.35;;
17510;SDS011;8873;48.818;9.422;2022-07-24T12:16:25;6.95;;;6.25;;
17510;SDS011;8873;48.818;9.422;2022-07-24T12:19:10;12.57;;;6.30;;
17510;SDS011;8873;48.818;9.422;2022-07-24T12:21:42;9.13;;;6.28;;
17510;SDS011;8873;48.818;9.422;2022-07-24T12:24:10;6.28;;;5.75;;
17510;SDS011;8873;48.818;9.422;2022-07-24T12:26:47;9.70;;;6.70;;
17510;SDS011;8873;48.818;9.422;2022-07-24T12:29:15;7.93;;;6.10;;
17510;SDS011;8873;48.818;9.422;2022-07-24T12:31:44;7.50;;;6.00;;
17510;SDS011;8873;48.818;9.422;2022-07-24T12:34:12;8.18;;;6.65;;
17510;SDS011;8873;48.818;9.422;2022-07-24T12:36:39;7.15;;;6.65;;
17510;SDS011;8873;48.818;9.422;2022-07-24T12:39:07;7.70;;;6.00;;
17510;SDS011;8873;48.818;9.422;2022-07-24T12:41:41;6.97;;;6.05;;
17510;SDS011;8873;48.818;9.422;2022-07-24T12:44:15;6.88;;;6.38;;
17510;SDS011;8873;48.818;9.422;2022-07-24T12:46:44;7.78;;;6.55;;
17510;SDS011;8873;48.818;9.422;2022-07-24T12:49:13;6.70;;;6.10;;
17510;SDS011;8873;48.818;9.422;2022-07-24T12:51:47;9.13;;;6.18;;
17510;SDS011;8873;48.818;9.422;2022-07-24T12:54:16;7.03;;;6.32;;
17510;SDS011;8873;48.818;9.422;2022-07-24T12:56:47;8.25;;;6.32;;
17510;SDS011;8873;48.818;9.422;2022-07-24T12:59:27;9.13;;;6.05;;
17510;SDS011;8873;48.818;9.422;2022-07-24T13:01:57;6.57;;;6.05;;
17510;SDS011;8873;48.818;9.422;2022-07-24T13:04:26;6.45;;;5.93;;
17510;SDS011;8873;48.818;9.422;2022-07-24T13:06:54;7.25;;;6.55;;
17510;SDS011;8873;48.818;9.422;2022-07-24T13:09:22;8.45;;;6.38;;
17510;SDS011;8873;48.818;9.422;2022-07-24T13:11:55;6.88;;;6.25;;
17510;SDS011;8873;48.818;9.422;2022-07-24T13:14:23;6.90;;;6.28;;
17510;SDS011;8873;48.818;9.422;2022-07-24T13:16:52;6.65;;;6.15;;
17510;SDS011;8873;48.818;9.422;2022-07-24T13:19:21;6.47;;;5.97;;
17510;SDS011;8873;48.818;9.422;2022-07-24T13:21:49;7.07;;;6.38;;
17510;SDS011;8873;48.818;9.422;2022-07-24T13:24:16;7.90;;;6.13;;
17510;SDS011;8873;48.818;9.422;2022-07-24T13:26:48;7.07;;;6.45;;
17510;SDS011;8873;48.818;9.422;2022-07-24T13:29:16;9.20;;;6.82;;
17510;SDS011;8873;48.818;9.422;2022-07-24T13:31:43;6.70;;;6.10;;
17510;SDS011;8873;48.818;9.422;2022-07-24T13:34:11;6.90;;;6.30;;
17510;SDS011;8873;48.818;9.422;2022-07-24T13:36:41;6.80;;;6.30;;
17510;SDS011;8873;48.818;9.422;2022-07-24T13:39:12;6.82;;;6.22;;
17510;SDS011;8873;48.818;9.422;2022-07-24T13:41:40;6.43;;;5.93;;
17510;SDS011;8873;48.818;9.422;2022-07-24T13:44:08;6.88;;;6.07;;
17510;SDS011;8873;48.818;9.422;2022-07-24T13:46:35;7.00;;;6.40;;
17510;SDS011;8873;48.818;9.422;2022-07-24T13:49:08;7.13;;;6.43;;
17510;SDS011;8873;48.818;9.422;2022-07-24T13:51:37;7.35;;;6.40;;
17510;SDS011;8873;48.818;9.422;2022-07-24T13:54:11;6.93;;;6.32;;
17510;SDS011;8873;48.818;9.422;2022-07-24T13:56:46;6.60;;;6.00;;
17510;SDS011;8873;48.818;9.422;2022-07-24T13:59:52;6.57;;;6.07;;
17510;SDS011;8873;48.818;9.422;2022-07-24T14:02:27;6.65;;;6.05;;
17510;SDS011;8873;48.818;9.422;2022-07-24T14:04:57;6.80;;;6.13;;
17510;SDS011;8873;48.818;9.422;2022-07-24T14:07:25;6.85;;;6.18;;
17510;SDS011;8873;48.818;9.422;2022-07-24T14:10:08;7.00;;;6.30;;
17510;SDS011;8873;48.818;9.422;2022-07-24T14:12:39;7.32;;;6.63;;
17510;SDS011;8873;48.818;9.422;2022-07-24T14:15:07;6.63;;;6.03;;
17510;SDS011;8873;48.818;9.422;2022-07-24T14:17:36;7.20;;;6.50;;
17510;SDS011;8873;48.818;9.422;2022-07-24T14:20:20;8.20;;;6.63;;
17510;SDS011;8873;48.818;9.422;2022-07-24T14:22:51;7.18;;;6.55;;
17510;SDS011;8873;48.818;9.422;2022-07-24T14:25:20;7.78;;;7.07;;
17510;SDS011;8873;48.818;9.422;2022-07-24T14:27:48;7.72;;;7.00;;
17510;SDS011;8873;48.818;9.422;2022-07-24T14:30:15;7.25;;;6.47;;
17510;SDS011;8873;48.818;9.422;2022-07-24T14:32:43;6.70;;;6.20;;
17510;SDS011;8873;48.818;9.422;2022-07-24T14:35:11;7.22;;;6.53;;
17510;SDS011;8873;48.818;9.422;2022-07-24T14:37:38;7.35;;;6.70;;
17510;SDS011;8873;48.818;9.422;2022-07-24T14:40:06;8.05;;;6.88;;
17510;SDS011;8873;48.818;9.422;2022-07-24T14:42:36;8.13;;;6.60;;
17510;SDS011;8873;48.818;9.422;2022-07-24T14:45:04;6.97;;;6.32;;
17510;SDS011;8873;48.818;9.422;2022-07-24T14:47:32;9.93;;;6.70;;
17510;SDS011;8873;48.818;9.422;2022-07-24T14:50:00;8.98;;;6.32;;
17510;SDS011;8873;48.818;9.422;2022-07-24T14:52:28;7.55;;;6.95;;
17510;SDS011;8873;48.818;9.422;2022-07-24T14:54:55;8.02;;;6.47;;
17510;SDS011;8873;48.818;9.422;2022-07-24T14:57:25;7.07;;;6.22;;
17510;SDS011;8873;48.818;9.422;2022-07-24T14:59:54;6.38;;;5.88;;
17510;SDS011;8873;48.818;9.422;2022-07-24T15:02:22;7.40;;;6.30;;
17510;SDS011;8873;48.818;9.422;2022-07-24T15:04:50;6.75;;;6.15;;
17510;SDS011;8873;48.818;9.422;2022-07-24T15:07:18;7.78;;;6.53;;
17510;SDS011;8873;48.818;9.422;2022-07-24T15:09:46;9.73;;;7.10;;
17510;SDS011;8873;48.818;9.422;2022-07-24T15:12:14;6.85;;;6.22;;
17510;SDS011;8873;48.818;9.422;2022-07-24T15:14:42;7.28;;;6.60;;
17510;SDS011;8873;48.818;9.422;2022-07-24T15:17:11;7.57;;;6.82;;
17510;SDS011;8873;48.818;9.422;2022-07-24T15:19:38;7.32;;;6.63;;
17510;SDS011;8873;48.818;9.422;2022-07-24T15:22:06;8.60;;;7.20;;
17510;SDS011;8873;48.818;9.422;2022-07-24T15:24:33;6.85;;;6.25;;
17510;SDS011;8873;48.818;9.422;2022-07-24T15:27:01;7.70;;;7.00;;
17510;SDS011;8873;48.818;9.422;2022-07-24T15:29:29;7.68;;;6.75;;
17510;SDS011;8873;48.818;9.422;2022-07-24T15:31:58;7.35;;;6.75;;